sensor_id;sensor_type;location;lat;lon;timestamp;P1;durP1;ratioP1;P2;durP2;ratioP2
46651;SDS011;32377;52.182;5.398;2023-12-07T00:00:58;22.70;;;12.90;;
46651;SDS011;32377;52.182;5.398;2023-12-07T00:03:24;23.17;;;13.07;;
46651;SDS011;32377;52.182;5.398;2023-12-07T00:05:49;28.63;;;14.07;;
46651;SDS011;32377;52.182;5.398;2023-12-07T00:08:15;33.23;;;14.90;;
46651;SDS011;32377;52.182;5.398;2023-12-07T00:10:40;27.17;;;13.50;;
46651;SDS011;32377;52.182;5.398;2023-12-07T00:13:06;23.70;;;13.10;;
46651;SDS011;32377;52.182;5.398;2023-12-07T00:15:31;25.23;;;13.50;;
46651;SDS011;32377;52.182;5.398;2023-12-07T00:17:57;22.37;;;12.00;;
46651;SDS011;32377;52.182;5.398;2023-12-07T00:20:22;22.47;;;13.37;;
46651;SDS011;32377;52.182;5.398;2023-12-07T00:22:48;22.27;;;13.23;;
46651;SDS011;32377;52.182;5.398;2023-12-07T00:25:13;23.30;;;12.90;;
46651;SDS011;32377;52.182;5.398;2023-12-07T00:27:39;22.43;;;12.37;;
46651;SDS011;32377;52.182;5.398;2023-12-07T00:30:06;22.03;;;12.37;;
46651;SDS011;32377;52.182;5.398;2023-12-07T00:32:32;25.27;;;12.87;;
46651;SDS011;32377;52.182;5.398;2023-12-07T00:34:57;23.37;;;12.67;;
46651;SDS011;32377;52.182;5.398;2023-12-07T00:37:23;21.23;;;12.67;;
46651;SDS011;32377;52.182;5.398;2023-12-07T00:39:48;24.30;;;13.10;;
46651;SDS011;32377;52.182;5.398;2023-12-07T00:42:14;20.27;;;11.97;;
46651;SDS011;32377;52.182;5.398;2023-12-07T00:44:40;22.97;;;13.57;;
46651;SDS011;32377;52.182;5.398;2023-12-07T00:47:06;22.83;;;12.97;;
46651;SDS011;32377;52.182;5.398;2023-12-07T00:49:31;22.10;;;12.63;;
46651;SDS011;32377;52.182;5.398;2023-12-07T00:51:57;23.23;;;12.33;;
46651;SDS011;32377;52.182;5.398;2023-12-07T00:54:22;20.03;;;12.53;;
46651;SDS011;32377;52.182;5.398;2023-12-07T00:56:48;22.73;;;12.67;;
46651;SDS011;32377;52.182;5.398;2023-12-07T00:59:14;26.53;;;13.03;;
46651;SDS011;32377;52.182;5.398;2023-12-07T01:01:39;20.83;;;12.50;;
46651;SDS011;32377;52.182;5.398;2023-12-07T01:04:05;24.17;;;12.87;;
46651;SDS011;32377;52.182;5.398;2023-12-07T01:06:31;25.40;;;13.30;;
46651;SDS011;32377;52.182;5.398;2023-12-07T01:08:56;20.47;;;12.00;;
46651;SDS011;32377;52.182;5.398;2023-12-07T01:11:22;22.83;;;12.77;;
46651;SDS011;32377;52.182;5.398;2023-12-07T01:13:48;20.53;;;12.13;;
46651;SDS011;32377;52.182;5.398;2023-12-07T01:16:14;24.30;;;13.17;;
46651;SDS011;32377;52.182;5.398;2023-12-07T01:18:39;24.53;;;13.43;;
46651;SDS011;32377;52.182;5.398;2023-12-07T01:21:05;26.87;;;13.80;;
46651;SDS011;32377;52.182;5.398;2023-12-07T01:23:31;23.97;;;12.93;;
46651;SDS011;32377;52.182;5.398;2023-12-07T01:25:57;21.97;;;11.87;;
46651;SDS011;32377;52.182;5.398;2023-12-07T01:28:22;27.53;;;13.97;;
46651;SDS011;32377;52.182;5.398;2023-12-07T01:30:48;22.83;;;14.07;;
46651;SDS011;32377;52.182;5.398;2023-12-07T01:33:13;23.97;;;14.07;;
46651;SDS011;32377;52.182;5.398;2023-12-07T01:35:40;31.60;;;13.93;;
46651;SDS011;32377;52.182;5.398;2023-12-07T01:38:05;25.47;;;15.03;;
46651;SDS011;32377;52.182;5.398;2023-12-07T01:40:31;28.20;;;14.03;;
46651;SDS011;32377;52.182;5.398;2023-12-07T01:42:57;23.90;;;13.93;;
46651;SDS011;32377;52.182;5.398;2023-12-07T01:45:22;25.50;;;12.47;;
46651;SDS011;32377;52.182;5.398;2023-12-07T01:47:49;25.97;;;13.57;;
46651;SDS011;32377;52.182;5.398;2023-12-07T01:50:16;26.07;;;13.83;;
46651;SDS011;32377;52.182;5.398;2023-12-07T01:52:45;23.17;;;13.73;;
46651;SDS011;32377;52.182;5.398;2023-12-07T01:55:13;26.97;;;13.30;;
46651;SDS011;32377;52.182;5.398;2023-12-07T01:57:40;23.77;;;13.87;;
46651;SDS011;32377;52.182;5.398;2023-12-07T02:00:08;22.43;;;12.93;;
46651;SDS011;32377;52.182;5.398;2023-12-07T02:02:34;23.30;;;12.77;;
46651;SDS011;32377;52.182;5.398;2023-12-07T02:05:01;28.50;;;14.27;;
46651;SDS011;32377;52.182;5.398;2023-12-07T02:07:27;25.63;;;14.53;;
46651;SDS011;32377;52.182;5.398;2023-12-07T02:09:53;26.07;;;14.00;;
46651;SDS011;32377;52.182;5.398;2023-12-07T02:12:19;24.83;;;13.57;;
46651;SDS011;32377;52.182;5.398;2023-12-07T02:14:45;25.17;;;14.80;;
46651;SDS011;32377;52.182;5.398;2023-12-07T02:17:18;23.83;;;13.37;;
46651;SDS011;32377;52.182;5.398;2023-12-07T02:22:39;24.07;;;13.83;;
46651;SDS011;32377;52.182;5.398;2023-12-07T02:25:07;27.47;;;13.93;;
46651;SDS011;32377;52.182;5.398;2023-12-07T02:27:38;28.23;;;14.03;;
46651;SDS011;32377;52.182;5.398;2023-12-07T02:30:13;25.63;;;14.33;;
46651;SDS011;32377;52.182;5.398;2023-12-07T02:32:40;28.13;;;14.33;;
46651;SDS011;32377;52.182;5.398;2023-12-07T02:35:07;27.53;;;14.27;;
46651;SDS011;32377;52.182;5.398;2023-12-07T02:37:50;23.20;;;14.63;;
46651;SDS011;32377;52.182;5.398;2023-12-07T02:40:26;30.97;;;14.70;;
46651;SDS011;32377;52.182;5.398;2023-12-07T02:42:53;27.63;;;13.90;;
46651;SDS011;32377;52.182;5.398;2023-12-07T02:45:19;25.17;;;13.83;;
46651;SDS011;32377;52.182;5.398;2023-12-07T02:47:45;28.73;;;14.30;;
46651;SDS011;32377;52.182;5.398;2023-12-07T02:50:11;22.83;;;13.30;;
46651;SDS011;32377;52.182;5.398;2023-12-07T02:52:38;32.93;;;15.30;;
46651;SDS011;32377;52.182;5.398;2023-12-07T02:55:04;28.60;;;15.23;;
46651;SDS011;32377;52.182;5.398;2023-12-07T02:57:30;22.93;;;13.47;;
46651;SDS011;32377;52.182;5.398;2023-12-07T02:59:58;26.67;;;15.27;;
46651;SDS011;32377;52.182;5.398;2023-12-07T03:02:24;24.53;;;14.03;;
46651;SDS011;32377;52.182;5.398;2023-12-07T03:04:50;26.47;;;14.17;;
46651;SDS011;32377;52.182;5.398;2023-12-07T03:07:16;24.00;;;13.73;;
46651;SDS011;32377;52.182;5.398;2023-12-07T03:09:41;23.97;;;13.80;;
46651;SDS011;32377;52.182;5.398;2023-12-07T03:12:07;27.03;;;14.63;;
46651;SDS011;32377;52.182;5.398;2023-12-07T03:14:33;27.93;;;14.07;;
46651;SDS011;32377;52.182;5.398;2023-12-07T03:16:58;25.83;;;15.47;;
46651;SDS011;32377;52.182;5.398;2023-12-07T03:19:24;28.20;;;14.70;;
46651;SDS011;32377;52.182;5.398;2023-12-07T03:21:50;22.37;;;14.53;;
46651;SDS011;32377;52.182;5.398;2023-12-07T03:24:16;27.43;;;14.87;;
46651;SDS011;32377;52.182;5.398;2023-12-07T03:26:41;28.13;;;15.73;;
46651;SDS011;32377;52.182;5.398;2023-12-07T03:29:07;29.10;;;14.67;;
46651;SDS011;32377;52.182;5.398;2023-12-07T03:31:33;25.07;;;13.63;;
46651;SDS011;32377;52.182;5.398;2023-12-07T03:33:58;28.13;;;15.23;;
46651;SDS011;32377;52.182;5.398;2023-12-07T03:36:26;23.57;;;13.13;;
46651;SDS011;32377;52.182;5.398;2023-12-07T03:38:51;22.97;;;13.60;;
46651;SDS011;32377;52.182;5.398;2023-12-07T03:41:17;26.30;;;13.90;;
46651;SDS011;32377;52.182;5.398;2023-12-07T03:43:43;22.13;;;13.07;;
46651;SDS011;32377;52.182;5.398;2023-12-07T03:46:09;24.63;;;15.03;;
46651;SDS011;32377;52.182;5.398;2023-12-07T03:48:35;26.60;;;14.27;;
46651;SDS011;32377;52.182;5.398;2023-12-07T03:51:00;23.73;;;13.47;;
46651;SDS011;32377;52.182;5.398;2023-12-07T03:53:26;27.77;;;14.53;;
46651;SDS011;32377;52.182;5.398;2023-12-07T03:55:52;24.13;;;14.17;;
46651;SDS011;32377;52.182;5.398;2023-12-07T03:58:18;25.50;;;14.67;;
46651;SDS011;32377;52.182;5.398;2023-12-07T04:00:44;23.87;;;12.73;;
46651;SDS011;32377;52.182;5.398;2023-12-07T04:03:10;26.63;;;14.57;;
46651;SDS011;32377;52.182;5.398;2023-12-07T04:05:36;24.33;;;14.10;;
46651;SDS011;32377;52.182;5.398;2023-12-07T04:08:02;24.93;;;13.43;;
46651;SDS011;32377;52.182;5.398;2023-12-07T04:10:30;26.53;;;15.10;;
46651;SDS011;32377;52.182;5.398;2023-12-07T04:12:56;25.00;;;14.37;;
46651;SDS011;32377;52.182;5.398;2023-12-07T04:15:21;26.57;;;14.40;;
46651;SDS011;32377;52.182;5.398;2023-12-07T04:17:48;25.60;;;14.17;;
46651;SDS011;32377;52.182;5.398;2023-12-07T04:20:14;26.43;;;14.70;;
46651;SDS011;32377;52.182;5.398;2023-12-07T04:22:39;28.43;;;13.60;;
46651;SDS011;32377;52.182;5.398;2023-12-07T04:25:05;26.63;;;14.80;;
46651;SDS011;32377;52.182;5.398;2023-12-07T04:27:32;26.23;;;14.00;;
46651;SDS011;32377;52.182;5.398;2023-12-07T04:29:58;31.33;;;15.63;;
46651;SDS011;32377;52.182;5.398;2023-12-07T04:32:24;26.43;;;15.00;;
46651;SDS011;32377;52.182;5.398;2023-12-07T04:34:50;24.67;;;13.37;;
46651;SDS011;32377;52.182;5.398;2023-12-07T04:37:16;27.40;;;13.97;;
46651;SDS011;32377;52.182;5.398;2023-12-07T04:39:42;23.27;;;13.07;;
46651;SDS011;32377;52.182;5.398;2023-12-07T04:42:08;23.43;;;13.80;;
46651;SDS011;32377;52.182;5.398;2023-12-07T04:44:33;24.93;;;13.80;;
46651;SDS011;32377;52.182;5.398;2023-12-07T04:46:59;23.17;;;12.77;;
46651;SDS011;32377;52.182;5.398;2023-12-07T04:49:24;25.80;;;13.87;;
46651;SDS011;32377;52.182;5.398;2023-12-07T04:51:50;29.60;;;14.70;;
46651;SDS011;32377;52.182;5.398;2023-12-07T04:54:16;24.90;;;14.20;;
46651;SDS011;32377;52.182;5.398;2023-12-07T04:56:42;24.97;;;14.00;;
46651;SDS011;32377;52.182;5.398;2023-12-07T04:59:08;26.97;;;14.27;;
46651;SDS011;32377;52.182;5.398;2023-12-07T05:01:37;29.30;;;14.63;;
46651;SDS011;32377;52.182;5.398;2023-12-07T05:04:03;26.23;;;14.90;;
46651;SDS011;32377;52.182;5.398;2023-12-07T05:06:30;25.90;;;16.27;;
46651;SDS011;32377;52.182;5.398;2023-12-07T05:09:02;30.53;;;15.73;;
46651;SDS011;32377;52.182;5.398;2023-12-07T05:11:28;30.37;;;15.37;;
46651;SDS011;32377;52.182;5.398;2023-12-07T05:13:53;63.17;;;17.90;;
46651;SDS011;32377;52.182;5.398;2023-12-07T05:16:19;41.63;;;15.63;;
46651;SDS011;32377;52.182;5.398;2023-12-07T05:18:44;47.73;;;17.23;;
46651;SDS011;32377;52.182;5.398;2023-12-07T05:21:10;65.37;;;18.43;;
46651;SDS011;32377;52.182;5.398;2023-12-07T05:23:36;53.50;;;17.13;;
46651;SDS011;32377;52.182;5.398;2023-12-07T05:26:02;69.27;;;18.17;;
46651;SDS011;32377;52.182;5.398;2023-12-07T05:28:28;64.07;;;18.60;;
46651;SDS011;32377;52.182;5.398;2023-12-07T05:30:53;77.13;;;19.97;;
46651;SDS011;32377;52.182;5.398;2023-12-07T05:33:19;63.63;;;17.87;;
46651;SDS011;32377;52.182;5.398;2023-12-07T05:35:44;56.63;;;18.43;;
46651;SDS011;32377;52.182;5.398;2023-12-07T05:38:11;56.87;;;18.63;;
46651;SDS011;32377;52.182;5.398;2023-12-07T05:40:36;62.53;;;18.77;;
46651;SDS011;32377;52.182;5.398;2023-12-07T05:43:02;58.33;;;19.33;;
46651;SDS011;32377;52.182;5.398;2023-12-07T05:45:28;74.97;;;19.40;;
46651;SDS011;32377;52.182;5.398;2023-12-07T05:47:54;64.23;;;18.90;;
46651;SDS011;32377;52.182;5.398;2023-12-07T05:50:20;82.67;;;20.07;;
46651;SDS011;32377;52.182;5.398;2023-12-07T05:52:45;52.70;;;18.00;;
46651;SDS011;32377;52.182;5.398;2023-12-07T05:55:11;49.13;;;19.13;;
46651;SDS011;32377;52.182;5.398;2023-12-07T05:57:37;85.37;;;20.50;;
46651;SDS011;32377;52.182;5.398;2023-12-07T06:00:02;77.07;;;20.07;;
46651;SDS011;32377;52.182;5.398;2023-12-07T06:02:32;73.33;;;21.70;;
46651;SDS011;32377;52.182;5.398;2023-12-07T06:04:58;94.20;;;21.00;;
46651;SDS011;32377;52.182;5.398;2023-12-07T06:07:23;83.87;;;22.80;;
46651;SDS011;32377;52.182;5.398;2023-12-07T06:09:49;55.07;;;20.83;;
46651;SDS011;32377;52.182;5.398;2023-12-07T06:12:14;73.37;;;23.10;;
46651;SDS011;32377;52.182;5.398;2023-12-07T06:14:40;93.60;;;21.57;;
46651;SDS011;32377;52.182;5.398;2023-12-07T06:17:06;97.40;;;23.30;;
46651;SDS011;32377;52.182;5.398;2023-12-07T06:19:33;140.60;;;24.23;;
46651;SDS011;32377;52.182;5.398;2023-12-07T06:21:58;172.17;;;25.40;;
46651;SDS011;32377;52.182;5.398;2023-12-07T06:24:24;85.73;;;23.00;;
46651;SDS011;32377;52.182;5.398;2023-12-07T06:26:50;100.13;;;23.77;;
46651;SDS011;32377;52.182;5.398;2023-12-07T06:29:17;147.70;;;24.73;;
46651;SDS011;32377;52.182;5.398;2023-12-07T06:31:43;57.53;;;21.43;;
46651;SDS011;32377;52.182;5.398;2023-12-07T06:34:09;94.47;;;25.17;;
46651;SDS011;32377;52.182;5.398;2023-12-07T06:36:35;126.20;;;25.70;;
46651;SDS011;32377;52.182;5.398;2023-12-07T06:39:01;111.83;;;24.63;;
46651;SDS011;32377;52.182;5.398;2023-12-07T06:41:28;92.10;;;24.00;;
46651;SDS011;32377;52.182;5.398;2023-12-07T06:43:53;101.57;;;24.30;;
46651;SDS011;32377;52.182;5.398;2023-12-07T06:46:19;125.53;;;23.50;;
46651;SDS011;32377;52.182;5.398;2023-12-07T06:48:45;80.40;;;23.03;;
46651;SDS011;32377;52.182;5.398;2023-12-07T06:51:10;145.87;;;26.43;;
46651;SDS011;32377;52.182;5.398;2023-12-07T06:53:39;157.47;;;26.40;;
46651;SDS011;32377;52.182;5.398;2023-12-07T06:56:06;90.60;;;25.13;;
46651;SDS011;32377;52.182;5.398;2023-12-07T06:58:32;147.23;;;27.23;;
46651;SDS011;32377;52.182;5.398;2023-12-07T07:00:57;125.63;;;27.57;;
46651;SDS011;32377;52.182;5.398;2023-12-07T07:03:23;147.00;;;27.13;;
46651;SDS011;32377;52.182;5.398;2023-12-07T07:05:49;119.17;;;28.37;;
46651;SDS011;32377;52.182;5.398;2023-12-07T07:08:15;69.40;;;25.60;;
46651;SDS011;32377;52.182;5.398;2023-12-07T07:10:41;77.30;;;27.83;;
46651;SDS011;32377;52.182;5.398;2023-12-07T07:13:06;59.67;;;25.87;;
46651;SDS011;32377;52.182;5.398;2023-12-07T07:15:32;111.90;;;28.67;;
46651;SDS011;32377;52.182;5.398;2023-12-07T07:17:58;65.10;;;24.57;;
46651;SDS011;32377;52.182;5.398;2023-12-07T07:20:24;106.37;;;27.97;;
46651;SDS011;32377;52.182;5.398;2023-12-07T07:22:50;126.53;;;30.40;;
46651;SDS011;32377;52.182;5.398;2023-12-07T07:25:16;132.87;;;27.07;;
46651;SDS011;32377;52.182;5.398;2023-12-07T07:27:44;155.17;;;29.20;;
46651;SDS011;32377;52.182;5.398;2023-12-07T07:30:10;121.97;;;27.30;;
46651;SDS011;32377;52.182;5.398;2023-12-07T07:32:36;103.00;;;30.17;;
46651;SDS011;32377;52.182;5.398;2023-12-07T07:35:02;109.97;;;27.40;;
46651;SDS011;32377;52.182;5.398;2023-12-07T07:37:28;128.17;;;29.30;;
46651;SDS011;32377;52.182;5.398;2023-12-07T07:39:53;73.60;;;26.57;;
46651;SDS011;32377;52.182;5.398;2023-12-07T07:42:19;77.27;;;27.53;;
46651;SDS011;32377;52.182;5.398;2023-12-07T07:44:45;90.67;;;28.77;;
46651;SDS011;32377;52.182;5.398;2023-12-07T07:47:10;98.20;;;29.83;;
46651;SDS011;32377;52.182;5.398;2023-12-07T07:49:36;99.77;;;28.77;;
46651;SDS011;32377;52.182;5.398;2023-12-07T07:52:02;89.57;;;28.50;;
46651;SDS011;32377;52.182;5.398;2023-12-07T07:54:28;120.13;;;29.73;;
46651;SDS011;32377;52.182;5.398;2023-12-07T07:56:53;79.30;;;28.53;;
46651;SDS011;32377;52.182;5.398;2023-12-07T07:59:19;80.83;;;26.37;;
46651;SDS011;32377;52.182;5.398;2023-12-07T08:01:45;101.13;;;29.47;;
46651;SDS011;32377;52.182;5.398;2023-12-07T08:04:12;105.63;;;30.93;;
46651;SDS011;32377;52.182;5.398;2023-12-07T08:06:37;119.03;;;30.37;;
46651;SDS011;32377;52.182;5.398;2023-12-07T08:09:03;159.27;;;33.20;;
46651;SDS011;32377;52.182;5.398;2023-12-07T08:11:29;99.43;;;27.77;;
46651;SDS011;32377;52.182;5.398;2023-12-07T08:13:54;132.13;;;29.40;;
46651;SDS011;32377;52.182;5.398;2023-12-07T08:16:20;73.70;;;26.30;;
46651;SDS011;32377;52.182;5.398;2023-12-07T08:18:47;97.03;;;28.53;;
46651;SDS011;32377;52.182;5.398;2023-12-07T08:21:19;116.43;;;28.10;;
46651;SDS011;32377;52.182;5.398;2023-12-07T08:23:49;114.90;;;28.83;;
46651;SDS011;32377;52.182;5.398;2023-12-07T08:26:16;105.53;;;27.43;;
46651;SDS011;32377;52.182;5.398;2023-12-07T08:28:42;154.97;;;29.83;;
46651;SDS011;32377;52.182;5.398;2023-12-07T08:31:07;139.93;;;27.57;;
46651;SDS011;32377;52.182;5.398;2023-12-07T08:33:33;92.47;;;27.53;;
46651;SDS011;32377;52.182;5.398;2023-12-07T08:35:59;91.43;;;27.00;;
46651;SDS011;32377;52.182;5.398;2023-12-07T08:38:26;60.77;;;27.63;;
46651;SDS011;32377;52.182;5.398;2023-12-07T08:40:51;86.97;;;32.53;;
46651;SDS011;32377;52.182;5.398;2023-12-07T08:43:20;104.60;;;27.97;;
46651;SDS011;32377;52.182;5.398;2023-12-07T08:45:48;152.23;;;40.00;;
46651;SDS011;32377;52.182;5.398;2023-12-07T08:48:14;134.53;;;42.37;;
46651;SDS011;32377;52.182;5.398;2023-12-07T08:50:40;187.37;;;48.83;;
46651;SDS011;32377;52.182;5.398;2023-12-07T08:53:05;143.73;;;44.10;;
46651;SDS011;32377;52.182;5.398;2023-12-07T08:55:31;103.40;;;28.40;;
46651;SDS011;32377;52.182;5.398;2023-12-07T08:57:57;108.43;;;30.80;;
46651;SDS011;32377;52.182;5.398;2023-12-07T09:00:24;139.10;;;33.73;;
46651;SDS011;32377;52.182;5.398;2023-12-07T09:02:50;101.67;;;30.47;;
46651;SDS011;32377;52.182;5.398;2023-12-07T09:05:16;89.33;;;26.97;;
46651;SDS011;32377;52.182;5.398;2023-12-07T09:07:42;96.30;;;28.93;;
46651;SDS011;32377;52.182;5.398;2023-12-07T09:10:08;86.80;;;27.10;;
46651;SDS011;32377;52.182;5.398;2023-12-07T09:12:35;85.70;;;28.30;;
46651;SDS011;32377;52.182;5.398;2023-12-07T09:15:01;95.90;;;25.93;;
46651;SDS011;32377;52.182;5.398;2023-12-07T09:17:27;165.20;;;44.90;;
46651;SDS011;32377;52.182;5.398;2023-12-07T09:19:53;107.47;;;28.47;;
46651;SDS011;32377;52.182;5.398;2023-12-07T09:22:19;132.00;;;32.40;;
46651;SDS011;32377;52.182;5.398;2023-12-07T09:24:45;113.10;;;32.20;;
46651;SDS011;32377;52.182;5.398;2023-12-07T09:27:11;103.47;;;29.70;;
46651;SDS011;32377;52.182;5.398;2023-12-07T09:29:40;97.17;;;28.63;;
46651;SDS011;32377;52.182;5.398;2023-12-07T09:32:06;99.37;;;28.83;;
46651;SDS011;32377;52.182;5.398;2023-12-07T09:34:32;103.23;;;28.80;;
46651;SDS011;32377;52.182;5.398;2023-12-07T09:37:10;97.67;;;28.47;;
46651;SDS011;32377;52.182;5.398;2023-12-07T09:39:36;102.10;;;29.00;;
46651;SDS011;32377;52.182;5.398;2023-12-07T09:42:01;91.33;;;30.47;;
46651;SDS011;32377;52.182;5.398;2023-12-07T09:44:27;89.13;;;28.40;;
46651;SDS011;32377;52.182;5.398;2023-12-07T09:46:53;95.97;;;27.53;;
46651;SDS011;32377;52.182;5.398;2023-12-07T09:49:20;90.03;;;28.63;;
46651;SDS011;32377;52.182;5.398;2023-12-07T09:51:46;99.13;;;30.27;;
46651;SDS011;32377;52.182;5.398;2023-12-07T09:54:12;70.73;;;28.83;;
46651;SDS011;32377;52.182;5.398;2023-12-07T09:56:38;77.70;;;27.27;;
46651;SDS011;32377;52.182;5.398;2023-12-07T09:59:04;70.03;;;26.80;;
46651;SDS011;32377;52.182;5.398;2023-12-07T10:01:31;69.20;;;27.33;;
46651;SDS011;32377;52.182;5.398;2023-12-07T10:04:19;76.73;;;28.60;;
46651;SDS011;32377;52.182;5.398;2023-12-07T10:06:47;62.07;;;24.53;;
46651;SDS011;32377;52.182;5.398;2023-12-07T10:09:14;60.73;;;23.67;;
46651;SDS011;32377;52.182;5.398;2023-12-07T10:11:40;70.50;;;25.43;;
46651;SDS011;32377;52.182;5.398;2023-12-07T10:14:06;62.03;;;21.60;;
46651;SDS011;32377;52.182;5.398;2023-12-07T10:16:33;61.13;;;20.80;;
46651;SDS011;32377;52.182;5.398;2023-12-07T10:19:14;54.43;;;19.93;;
46651;SDS011;32377;52.182;5.398;2023-12-07T10:21:44;53.57;;;19.77;;
46651;SDS011;32377;52.182;5.398;2023-12-07T10:24:11;56.33;;;20.23;;
46651;SDS011;32377;52.182;5.398;2023-12-07T10:26:39;55.53;;;20.37;;
46651;SDS011;32377;52.182;5.398;2023-12-07T10:29:05;56.17;;;19.70;;
46651;SDS011;32377;52.182;5.398;2023-12-07T10:31:31;51.17;;;18.90;;
46651;SDS011;32377;52.182;5.398;2023-12-07T10:33:58;54.47;;;19.87;;
46651;SDS011;32377;52.182;5.398;2023-12-07T10:36:25;60.17;;;21.70;;
46651;SDS011;32377;52.182;5.398;2023-12-07T10:38:51;49.73;;;21.13;;
46651;SDS011;32377;52.182;5.398;2023-12-07T10:41:18;58.20;;;20.77;;
46651;SDS011;32377;52.182;5.398;2023-12-07T10:43:45;60.77;;;19.17;;
46651;SDS011;32377;52.182;5.398;2023-12-07T10:46:17;50.60;;;19.17;;
46651;SDS011;32377;52.182;5.398;2023-12-07T10:48:46;51.20;;;19.27;;
46651;SDS011;32377;52.182;5.398;2023-12-07T10:51:13;53.53;;;17.50;;
46651;SDS011;32377;52.182;5.398;2023-12-07T10:53:51;51.77;;;19.73;;
46651;SDS011;32377;52.182;5.398;2023-12-07T10:56:27;45.10;;;16.00;;
46651;SDS011;32377;52.182;5.398;2023-12-07T10:58:56;43.47;;;17.37;;
46651;SDS011;32377;52.182;5.398;2023-12-07T11:01:22;57.47;;;18.23;;
46651;SDS011;32377;52.182;5.398;2023-12-07T11:03:49;43.80;;;18.90;;
46651;SDS011;32377;52.182;5.398;2023-12-07T11:06:18;51.43;;;19.70;;
46651;SDS011;32377;52.182;5.398;2023-12-07T11:08:50;46.37;;;18.30;;
46651;SDS011;32377;52.182;5.398;2023-12-07T11:11:39;40.23;;;16.53;;
46651;SDS011;32377;52.182;5.398;2023-12-07T11:14:09;41.03;;;16.70;;
46651;SDS011;32377;52.182;5.398;2023-12-07T11:16:37;37.70;;;16.97;;
46651;SDS011;32377;52.182;5.398;2023-12-07T11:19:06;43.57;;;17.37;;
46651;SDS011;32377;52.182;5.398;2023-12-07T11:22:09;41.40;;;15.93;;
46651;SDS011;32377;52.182;5.398;2023-12-07T11:24:36;51.83;;;18.80;;
46651;SDS011;32377;52.182;5.398;2023-12-07T11:27:02;43.83;;;16.33;;
46651;SDS011;32377;52.182;5.398;2023-12-07T11:29:28;48.47;;;17.33;;
46651;SDS011;32377;52.182;5.398;2023-12-07T11:32:04;44.63;;;17.37;;
46651;SDS011;32377;52.182;5.398;2023-12-07T11:34:38;40.73;;;16.27;;
46651;SDS011;32377;52.182;5.398;2023-12-07T11:37:04;46.70;;;17.97;;
46651;SDS011;32377;52.182;5.398;2023-12-07T11:39:40;46.63;;;17.83;;
46651;SDS011;32377;52.182;5.398;2023-12-07T11:42:07;40.43;;;16.90;;
46651;SDS011;32377;52.182;5.398;2023-12-07T11:44:39;45.73;;;17.97;;
46651;SDS011;32377;52.182;5.398;2023-12-07T11:47:06;44.07;;;16.93;;
46651;SDS011;32377;52.182;5.398;2023-12-07T11:49:34;42.70;;;16.27;;
46651;SDS011;32377;52.182;5.398;2023-12-07T11:52:00;43.60;;;16.17;;
46651;SDS011;32377;52.182;5.398;2023-12-07T11:54:36;43.93;;;17.70;;
46651;SDS011;32377;52.182;5.398;2023-12-07T11:57:02;45.33;;;16.80;;
46651;SDS011;32377;52.182;5.398;2023-12-07T11:59:28;47.73;;;17.03;;
46651;SDS011;32377;52.182;5.398;2023-12-07T12:01:54;45.10;;;17.20;;
46651;SDS011;32377;52.182;5.398;2023-12-07T12:04:21;48.50;;;17.93;;
46651;SDS011;32377;52.182;5.398;2023-12-07T12:06:47;49.63;;;17.87;;
46651;SDS011;32377;52.182;5.398;2023-12-07T12:09:13;64.60;;;19.40;;
46651;SDS011;32377;52.182;5.398;2023-12-07T12:11:48;61.33;;;19.37;;
46651;SDS011;32377;52.182;5.398;2023-12-07T12:14:14;99.07;;;33.93;;
46651;SDS011;32377;52.182;5.398;2023-12-07T12:16:41;63.43;;;21.10;;
46651;SDS011;32377;52.182;5.398;2023-12-07T12:19:08;69.77;;;27.23;;
46651;SDS011;32377;52.182;5.398;2023-12-07T12:21:34;53.43;;;20.67;;
46651;SDS011;32377;52.182;5.398;2023-12-07T12:24:09;63.70;;;22.13;;
46651;SDS011;32377;52.182;5.398;2023-12-07T12:26:36;68.37;;;21.07;;
46651;SDS011;32377;52.182;5.398;2023-12-07T12:29:04;74.30;;;22.67;;
46651;SDS011;32377;52.182;5.398;2023-12-07T12:31:31;64.57;;;23.03;;
46651;SDS011;32377;52.182;5.398;2023-12-07T12:33:57;59.63;;;21.83;;
46651;SDS011;32377;52.182;5.398;2023-12-07T12:36:22;61.07;;;22.57;;
46651;SDS011;32377;52.182;5.398;2023-12-07T12:38:52;59.87;;;21.00;;
46651;SDS011;32377;52.182;5.398;2023-12-07T12:41:21;56.63;;;21.90;;
46651;SDS011;32377;52.182;5.398;2023-12-07T12:43:47;62.57;;;21.80;;
46651;SDS011;32377;52.182;5.398;2023-12-07T12:46:14;64.07;;;21.70;;
46651;SDS011;32377;52.182;5.398;2023-12-07T12:51:20;63.17;;;22.87;;
46651;SDS011;32377;52.182;5.398;2023-12-07T12:53:48;66.40;;;24.00;;
46651;SDS011;32377;52.182;5.398;2023-12-07T12:56:14;63.63;;;23.67;;
46651;SDS011;32377;52.182;5.398;2023-12-07T12:58:40;63.10;;;23.50;;
46651;SDS011;32377;52.182;5.398;2023-12-07T13:01:06;85.37;;;29.43;;
46651;SDS011;32377;52.182;5.398;2023-12-07T13:03:32;68.30;;;24.00;;
46651;SDS011;32377;52.182;5.398;2023-12-07T13:05:58;82.93;;;30.43;;
46651;SDS011;32377;52.182;5.398;2023-12-07T13:08:24;70.57;;;25.17;;
46651;SDS011;32377;52.182;5.398;2023-12-07T13:10:49;67.47;;;25.33;;
46651;SDS011;32377;52.182;5.398;2023-12-07T13:13:15;67.13;;;28.17;;
46651;SDS011;32377;52.182;5.398;2023-12-07T13:15:41;83.63;;;31.90;;
46651;SDS011;32377;52.182;5.398;2023-12-07T13:18:07;85.70;;;32.50;;
46651;SDS011;32377;52.182;5.398;2023-12-07T13:20:36;86.50;;;31.73;;
46651;SDS011;32377;52.182;5.398;2023-12-07T13:23:02;86.43;;;34.30;;
46651;SDS011;32377;52.182;5.398;2023-12-07T13:25:28;87.23;;;33.77;;
46651;SDS011;32377;52.182;5.398;2023-12-07T13:27:54;72.83;;;30.37;;
46651;SDS011;32377;52.182;5.398;2023-12-07T13:30:19;81.37;;;31.73;;
46651;SDS011;32377;52.182;5.398;2023-12-07T13:32:45;81.03;;;29.27;;
46651;SDS011;32377;52.182;5.398;2023-12-07T13:35:11;72.93;;;32.10;;
46651;SDS011;32377;52.182;5.398;2023-12-07T13:37:37;68.70;;;28.63;;
46651;SDS011;32377;52.182;5.398;2023-12-07T13:40:03;72.93;;;28.33;;
46651;SDS011;32377;52.182;5.398;2023-12-07T13:42:32;67.97;;;28.30;;
46651;SDS011;32377;52.182;5.398;2023-12-07T13:44:58;72.00;;;27.83;;
46651;SDS011;32377;52.182;5.398;2023-12-07T13:47:25;68.40;;;27.37;;
46651;SDS011;32377;52.182;5.398;2023-12-07T13:49:56;65.60;;;27.90;;
46651;SDS011;32377;52.182;5.398;2023-12-07T13:52:25;67.90;;;26.53;;
46651;SDS011;32377;52.182;5.398;2023-12-07T13:54:51;63.83;;;27.93;;
46651;SDS011;32377;52.182;5.398;2023-12-07T13:57:17;60.70;;;26.47;;
46651;SDS011;32377;52.182;5.398;2023-12-07T13:59:43;62.53;;;26.90;;
46651;SDS011;32377;52.182;5.398;2023-12-07T14:02:09;70.70;;;29.47;;
46651;SDS011;32377;52.182;5.398;2023-12-07T14:04:35;72.57;;;29.10;;
46651;SDS011;32377;52.182;5.398;2023-12-07T14:07:07;70.90;;;30.03;;
46651;SDS011;32377;52.182;5.398;2023-12-07T14:09:37;71.00;;;29.00;;
46651;SDS011;32377;52.182;5.398;2023-12-07T14:12:07;75.57;;;30.47;;
46651;SDS011;32377;52.182;5.398;2023-12-07T14:14:35;72.60;;;30.27;;
46651;SDS011;32377;52.182;5.398;2023-12-07T14:17:01;73.67;;;29.87;;
46651;SDS011;32377;52.182;5.398;2023-12-07T14:19:27;79.13;;;31.50;;
46651;SDS011;32377;52.182;5.398;2023-12-07T14:21:53;79.57;;;32.93;;